sensor_id;sensor_type;location;lat;lon;timestamp;pressure;altitude;pressure_sealevel;temperature;humidity
16331;BME280;8275;48.206;16.340;2022-10-28T00:01:52;100439.06;;;18.50;55.78
16331;BME280;8275;48.206;16.340;2022-10-28T00:04:21;100432.66;;;18.49;55.81
16331;BME280;8275;48.206;16.340;2022-10-28T00:06:49;100430.19;;;18.48;55.86
16331;BME280;8275;48.206;16.340;2022-10-28T00:09:18;100432.13;;;18.47;55.98
16331;BME280;8275;48.206;16.340;2022-10-28T00:11:47;100434.34;;;18.45;55.92
16331;BME280;8275;48.206;16.340;2022-10-28T00:14:16;100429.34;;;18.47;56.06
16331;BME280;8275;48.206;16.340;2022-10-28T00:16:44;100432.66;;;18.49;56.03
16331;BME280;8275;48.206;16.340;2022-10-28T00:19:13;100427.97;;;18.50;55.89
16331;BME280;8275;48.206;16.340;2022-10-28T00:21:43;100435.44;;;18.49;55.95
16331;BME280;8275;48.206;16.340;2022-10-28T00:24:13;100436.28;;;18.50;56.10
16331;BME280;8275;48.206;16.340;2022-10-28T00:26:42;100427.13;;;18.49;56.09
16331;BME280;8275;48.206;16.340;2022-10-28T00:29:16;100432.13;;;18.47;56.09
16331;BME280;8275;48.206;16.340;2022-10-28T00:31:45;100424.09;;;18.46;56.20
16331;BME280;8275;48.206;16.340;2022-10-28T00:34:16;100424.31;;;18.44;56.22
16331;BME280;8275;48.206;16.340;2022-10-28T00:36:46;100420.19;;;18.42;56.19
16331;BME280;8275;48.206;16.340;2022-10-28T00:39:18;100419.34;;;18.41;56.07
16331;BME280;8275;48.206;16.340;2022-10-28T00:41:48;100416.03;;;18.39;56.07
16331;BME280;8275;48.206;16.340;2022-10-28T00:44:51;100417.13;;;18.33;56.17
16331;BME280;8275;48.206;16.340;2022-10-28T00:47:46;100420.47;;;18.30;56.18
16331;BME280;8275;48.206;16.340;2022-10-28T00:50:32;100427.66;;;18.31;56.18
16331;BME280;8275;48.206;16.340;2022-10-28T00:53:08;100428.22;;;18.33;56.29
16331;BME280;8275;48.206;16.340;2022-10-28T00:55:37;100421.56;;;18.34;56.12
16331;BME280;8275;48.206;16.340;2022-10-28T00:58:08;100419.91;;;18.33;56.22
16331;BME280;8275;48.206;16.340;2022-10-28T01:00:39;100422.66;;;18.33;56.32
16331;BME280;8275;48.206;16.340;2022-10-28T01:03:07;100419.06;;;18.33;56.28
16331;BME280;8275;48.206;16.340;2022-10-28T01:05:40;100419.06;;;18.33;56.38
16331;BME280;8275;48.206;16.340;2022-10-28T01:08:10;100416.03;;;18.34;56.33
16331;BME280;8275;48.206;16.340;2022-10-28T01:11:12;100412.41;;;18.29;56.35
16331;BME280;8275;48.206;16.340;2022-10-28T01:14:08;100416.31;;;18.28;56.13
16331;BME280;8275;48.206;16.340;2022-10-28T01:17:07;100414.94;;;18.25;56.26
16331;BME280;8275;48.206;16.340;2022-10-28T01:20:30;100412.69;;;18.22;56.48
16331;BME280;8275;48.206;16.340;2022-10-28T01:23:13;100417.41;;;18.27;56.12
16331;BME280;8275;48.206;16.340;2022-10-28T01:26:21;100414.09;;;18.24;56.30
16331;BME280;8275;48.206;16.340;2022-10-28T01:32:29;100407.69;;;18.24;56.09
16331;BME280;8275;48.206;16.340;2022-10-28T01:35:10;100409.09;;;18.27;56.08
16331;BME280;8275;48.206;16.340;2022-10-28T01:37:48;100407.44;;;18.26;56.02
16331;BME280;8275;48.206;16.340;2022-10-28T01:40:27;100408.84;;;18.23;56.04
16331;BME280;8275;48.206;16.340;2022-10-28T01:43:07;100406.31;;;18.21;56.21
16331;BME280;8275;48.206;16.340;2022-10-28T01:45:46;100399.13;;;18.20;56.17
16331;BME280;8275;48.206;16.340;2022-10-28T01:48:21;100401.91;;;18.20;56.08
16331;BME280;8275;48.206;16.340;2022-10-28T01:50:58;100393.03;;;18.18;56.05
16331;BME280;8275;48.206;16.340;2022-10-28T01:53:32;100398.84;;;18.17;56.05
16331;BME280;8275;48.206;16.340;2022-10-28T01:56:07;100390.25;;;18.18;56.03
16331;BME280;8275;48.206;16.340;2022-10-28T01:58:37;100395.81;;;18.18;56.08
16331;BME280;8275;48.206;16.340;2022-10-28T02:01:08;100393.84;;;18.19;56.22
16331;BME280;8275;48.206;16.340;2022-10-28T02:03:38;100400.50;;;18.23;56.16
16331;BME280;8275;48.206;16.340;2022-10-28T02:06:15;100396.59;;;18.24;56.16
16331;BME280;8275;48.206;16.340;2022-10-28T02:09:08;100403.84;;;18.25;56.19
16331;BME280;8275;48.206;16.340;2022-10-28T02:12:23;100403.00;;;18.24;56.23
16331;BME280;8275;48.206;16.340;2022-10-28T02:15:22;100401.31;;;18.23;56.19
16331;BME280;8275;48.206;16.340;2022-10-28T02:18:19;100399.13;;;18.26;56.20
16331;BME280;8275;48.206;16.340;2022-10-28T02:20:54;100394.38;;;18.26;56.11
16331;BME280;8275;48.206;16.340;2022-10-28T02:23:36;100399.13;;;18.26;56.08
16331;BME280;8275;48.206;16.340;2022-10-28T02:26:15;100395.50;;;18.25;56.04
16331;BME280;8275;48.206;16.340;2022-10-28T02:28:53;100393.00;;;18.23;56.08
16331;BME280;8275;48.206;16.340;2022-10-28T02:31:28;100390.50;;;18.22;56.17
16331;BME280;8275;48.206;16.340;2022-10-28T02:34:03;100387.75;;;18.22;56.26
16331;BME280;8275;48.206;16.340;2022-10-28T02:36:37;100383.31;;;18.21;56.25
16331;BME280;8275;48.206;16.340;2022-10-28T02:39:07;100380.25;;;18.22;56.23
16331;BME280;8275;48.206;16.340;2022-10-28T02:41:43;100376.66;;;18.22;56.39
16331;BME280;8275;48.206;16.340;2022-10-28T02:44:21;100381.09;;;18.23;56.33
16331;BME280;8275;48.206;16.340;2022-10-28T02:46:54;100378.88;;;18.25;56.33
16331;BME280;8275;48.206;16.340;2022-10-28T02:49:27;100379.72;;;18.26;56.32
16331;BME280;8275;48.206;16.340;2022-10-28T02:52:04;100381.63;;;18.25;56.41
16331;BME280;8275;48.206;16.340;2022-10-28T02:54:38;100381.34;;;18.27;56.24
16331;BME280;8275;48.206;16.340;2022-10-28T02:57:11;100377.47;;;18.28;56.21
16331;BME280;8275;48.206;16.340;2022-10-28T02:59:41;100376.34;;;18.29;56.30
16331;BME280;8275;48.206;16.340;2022-10-28T03:02:09;100375.25;;;18.30;56.27
16331;BME280;8275;48.206;16.340;2022-10-28T03:04:37;100383.28;;;18.31;56.24
16331;BME280;8275;48.206;16.340;2022-10-28T03:07:07;100379.41;;;18.32;56.24
16331;BME280;8275;48.206;16.340;2022-10-28T03:09:35;100376.63;;;18.32;56.29
16331;BME280;8275;48.206;16.340;2022-10-28T03:12:04;100370.25;;;18.32;56.29
16331;BME280;8275;48.206;16.340;2022-10-28T03:14:33;100381.34;;;18.32;56.35
16331;BME280;8275;48.206;16.340;2022-10-28T03:17:01;100383.28;;;18.31;56.39
16331;BME280;8275;48.206;16.340;2022-10-28T03:19:29;100378.56;;;18.32;56.25
16331;BME280;8275;48.206;16.340;2022-10-28T03:21:58;100385.50;;;18.34;56.40
16331;BME280;8275;48.206;16.340;2022-10-28T03:24:28;100379.97;;;18.34;56.38
16331;BME280;8275;48.206;16.340;2022-10-28T03:26:56;100372.47;;;18.35;56.39
16331;BME280;8275;48.206;16.340;2022-10-28T03:29:25;100373.28;;;18.35;56.42
16331;BME280;8275;48.206;16.340;2022-10-28T03:31:53;100372.19;;;18.36;56.32
16331;BME280;8275;48.206;16.340;2022-10-28T03:34:21;100371.88;;;18.38;56.34
16331;BME280;8275;48.206;16.340;2022-10-28T03:36:50;100375.78;;;18.37;56.28
16331;BME280;8275;48.206;16.340;2022-10-28T03:39:18;100372.19;;;18.36;56.23
16331;BME280;8275;48.206;16.340;2022-10-28T03:41:48;100369.41;;;18.36;56.25
16331;BME280;8275;48.206;16.340;2022-10-28T03:44:16;100365.25;;;18.39;56.22
16331;BME280;8275;48.206;16.340;2022-10-28T03:46:45;100356.63;;;18.40;56.39
16331;BME280;8275;48.206;16.340;2022-10-28T03:49:13;100361.09;;;18.41;56.24
16331;BME280;8275;48.206;16.340;2022-10-28T03:51:41;100364.41;;;18.43;56.19
16331;BME280;8275;48.206;16.340;2022-10-28T03:54:10;100364.41;;;18.43;56.18
16331;BME280;8275;48.206;16.340;2022-10-28T03:56:38;100363.56;;;18.43;56.25
16331;BME280;8275;48.206;16.340;2022-10-28T03:59:09;100365.50;;;18.42;56.12
16331;BME280;8275;48.206;16.340;2022-10-28T04:01:42;100367.47;;;18.42;56.18
16331;BME280;8275;48.206;16.340;2022-10-28T04:04:11;100371.03;;;18.42;56.12
16331;BME280;8275;48.206;16.340;2022-10-28T04:06:40;100372.19;;;18.41;56.11
16331;BME280;8275;48.206;16.340;2022-10-28T04:09:08;100377.72;;;18.41;56.18
16331;BME280;8275;48.206;16.340;2022-10-28T04:11:37;100374.13;;;18.41;56.10
16331;BME280;8275;48.206;16.340;2022-10-28T04:14:05;100368.28;;;18.42;56.20
16331;BME280;8275;48.206;16.340;2022-10-28T04:16:35;100383.28;;;18.41;56.11
16331;BME280;8275;48.206;16.340;2022-10-28T04:19:03;100393.53;;;18.41;56.03
16331;BME280;8275;48.206;16.340;2022-10-28T04:21:32;100389.09;;;18.40;56.00
16331;BME280;8275;48.206;16.340;2022-10-28T04:24:00;100385.75;;;18.38;56.09
16331;BME280;8275;48.206;16.340;2022-10-28T04:26:29;100389.66;;;18.37;56.07
16331;BME280;8275;48.206;16.340;2022-10-28T04:28:58;100388.00;;;18.36;56.22
16331;BME280;8275;48.206;16.340;2022-10-28T04:31:26;100378.28;;;18.33;56.15
16331;BME280;8275;48.206;16.340;2022-10-28T04:33:56;100365.53;;;18.32;56.24
16331;BME280;8275;48.206;16.340;2022-10-28T04:36:24;100357.47;;;18.31;56.27
16331;BME280;8275;48.206;16.340;2022-10-28T04:38:53;100359.44;;;18.30;56.22
16331;BME280;8275;48.206;16.340;2022-10-28T04:41:21;100363.88;;;18.31;56.21
16331;BME280;8275;48.206;16.340;2022-10-28T04:43:49;100359.16;;;18.32;56.20
16331;BME280;8275;48.206;16.340;2022-10-28T04:46:18;100360.00;;;18.32;56.27
16331;BME280;8275;48.206;16.340;2022-10-28T04:48:46;100360.00;;;18.32;56.20
16331;BME280;8275;48.206;16.340;2022-10-28T04:51:16;100364.41;;;18.33;56.10
16331;BME280;8275;48.206;16.340;2022-10-28T04:53:44;100355.81;;;18.35;56.26
16331;BME280;8275;48.206;16.340;2022-10-28T04:56:13;100360.53;;;18.34;55.98
16331;BME280;8275;48.206;16.340;2022-10-28T04:58:41;100368.56;;;18.31;56.11
16331;BME280;8275;48.206;16.340;2022-10-28T05:01:10;100362.78;;;18.27;56.29
16331;BME280;8275;48.206;16.340;2022-10-28T05:03:38;100363.88;;;18.26;56.29
16331;BME280;8275;48.206;16.340;2022-10-28T05:06:07;100363.59;;;18.28;56.46
16331;BME280;8275;48.206;16.340;2022-10-28T05:08:36;100363.88;;;18.26;56.17
16331;BME280;8275;48.206;16.340;2022-10-28T05:11:05;100363.06;;;18.26;56.21
16331;BME280;8275;48.206;16.340;2022-10-28T05:13:33;100358.31;;;18.26;56.13
16331;BME280;8275;48.206;16.340;2022-10-28T05:16:02;100360.28;;;18.26;56.14
16331;BME280;8275;48.206;16.340;2022-10-28T05:18:30;100360.28;;;18.26;56.19
16331;BME280;8275;48.206;16.340;2022-10-28T05:20:59;100361.63;;;18.28;56.15
16331;BME280;8275;48.206;16.340;2022-10-28T05:23:27;100361.94;;;18.27;56.11
16331;BME280;8275;48.206;16.340;2022-10-28T05:25:58;100357.50;;;18.26;56.15
16331;BME280;8275;48.206;16.340;2022-10-28T05:28:26;100351.38;;;18.23;56.20
16331;BME280;8275;48.206;16.340;2022-10-28T05:30:55;100352.53;;;18.22;56.21
16331;BME280;8275;48.206;16.340;2022-10-28T05:33:23;100362.78;;;18.22;56.19
16331;BME280;8275;48.206;16.340;2022-10-28T05:35:52;100359.16;;;18.21;56.37
16331;BME280;8275;48.206;16.340;2022-10-28T05:38:20;100357.50;;;18.20;56.24
16331;BME280;8275;48.206;16.340;2022-10-28T05:40:49;100355.00;;;18.19;56.24
16331;BME280;8275;48.206;16.340;2022-10-28T05:43:18;100357.22;;;18.17;56.22
16331;BME280;8275;48.206;16.340;2022-10-28T05:45:51;100365.84;;;18.15;56.15
16331;BME280;8275;48.206;16.340;2022-10-28T05:48:20;100361.94;;;18.16;56.01
16331;BME280;8275;48.206;16.340;2022-10-28T05:50:48;100361.94;;;18.16;55.94
16331;BME280;8275;48.206;16.340;2022-10-28T05:53:17;100371.94;;;18.17;56.02
16331;BME280;8275;48.206;16.340;2022-10-28T05:55:45;100383.56;;;18.14;55.90
16331;BME280;8275;48.206;16.340;2022-10-28T05:58:14;100384.41;;;18.15;55.88
16331;BME280;8275;48.206;16.340;2022-10-28T06:00:43;100376.38;;;18.13;55.85
16331;BME280;8275;48.206;16.340;2022-10-28T06:03:12;100377.47;;;18.12;55.86
16331;BME280;8275;48.206;16.340;2022-10-28T06:05:42;100376.09;;;18.10;55.88
16331;BME280;8275;48.206;16.340;2022-10-28T06:08:12;100378.88;;;18.10;55.66
16331;BME280;8275;48.206;16.340;2022-10-28T06:10:48;100372.22;;;18.11;55.89
16331;BME280;8275;48.206;16.340;2022-10-28T06:13:16;100361.97;;;18.11;55.93
16331;BME280;8275;48.206;16.340;2022-10-28T06:15:51;100379.16;;;18.08;55.90
16331;BME280;8275;48.206;16.340;2022-10-28T06:18:19;100380.00;;;18.14;55.77
16331;BME280;8275;48.206;16.340;2022-10-28T06:20:54;100383.88;;;18.13;55.79
16331;BME280;8275;48.206;16.340;2022-10-28T06:23:24;100383.88;;;18.13;55.85
16331;BME280;8275;48.206;16.340;2022-10-28T06:25:57;100381.09;;;18.13;55.69
16331;BME280;8275;48.206;16.340;2022-10-28T06:28:30;100389.13;;;18.14;55.68
16331;BME280;8275;48.206;16.340;2022-10-28T06:31:05;100383.03;;;18.12;55.74
16331;BME280;8275;48.206;16.340;2022-10-28T06:33:34;100386.63;;;18.13;55.70
16331;BME280;8275;48.206;16.340;2022-10-28T06:36:04;100386.34;;;18.14;55.89
16331;BME280;8275;48.206;16.340;2022-10-28T06:38:32;100390.50;;;18.17;55.71
16331;BME280;8275;48.206;16.340;2022-10-28T06:41:01;100385.50;;;18.19;55.71
16331;BME280;8275;48.206;16.340;2022-10-28T06:43:29;100396.06;;;18.22;55.69
16331;BME280;8275;48.206;16.340;2022-10-28T06:46:00;100399.66;;;18.22;55.69
16331;BME280;8275;48.206;16.340;2022-10-28T06:48:30;100396.06;;;18.22;55.62
16331;BME280;8275;48.206;16.340;2022-10-28T06:50:59;100393.56;;;18.20;55.60
16331;BME280;8275;48.206;16.340;2022-10-28T06:53:27;100393.84;;;18.19;55.69
16331;BME280;8275;48.206;16.340;2022-10-28T06:55:57;100399.66;;;18.17;55.77
16331;BME280;8275;48.206;16.340;2022-10-28T06:58:26;100404.38;;;18.17;55.75
16331;BME280;8275;48.206;16.340;2022-10-28T07:00:55;100401.34;;;18.18;55.88
16331;BME280;8275;48.206;16.340;2022-10-28T07:03:23;100408.28;;;18.21;55.90
16331;BME280;8275;48.206;16.340;2022-10-28T07:05:54;100410.75;;;18.22;55.70
16331;BME280;8275;48.206;16.340;2022-10-28T07:08:22;100411.03;;;18.26;55.74
16331;BME280;8275;48.206;16.340;2022-10-28T07:10:54;100406.03;;;18.28;55.79
16331;BME280;8275;48.206;16.340;2022-10-28T07:13:24;100409.38;;;18.30;55.68
16331;BME280;8275;48.206;16.340;2022-10-28T07:15:54;100404.94;;;18.34;55.78
16331;BME280;8275;48.206;16.340;2022-10-28T07:18:25;100414.34;;;18.38;55.81
16331;BME280;8275;48.206;16.340;2022-10-28T07:20:57;100417.41;;;18.42;55.77
16331;BME280;8275;48.206;16.340;2022-10-28T07:23:26;100415.47;;;18.47;55.74
16331;BME280;8275;48.206;16.340;2022-10-28T07:25:55;100412.41;;;18.49;55.55
16331;BME280;8275;48.206;16.340;2022-10-28T07:28:24;100412.41;;;18.49;55.27
16331;BME280;8275;48.206;16.340;2022-10-28T07:30:53;100414.06;;;18.50;55.64
16331;BME280;8275;48.206;16.340;2022-10-28T07:33:21;100413.53;;;18.53;55.53
16331;BME280;8275;48.206;16.340;2022-10-28T07:35:50;100416.56;;;18.56;55.77
16331;BME280;8275;48.206;16.340;2022-10-28T07:38:20;100426.81;;;18.61;55.42
16331;BME280;8275;48.206;16.340;2022-10-28T07:40:48;100429.88;;;18.64;55.38
16331;BME280;8275;48.206;16.340;2022-10-28T07:43:16;100433.47;;;18.70;55.51
16331;BME280;8275;48.206;16.340;2022-10-28T07:45:45;100437.34;;;18.74;55.17
16331;BME280;8275;48.206;16.340;2022-10-28T07:48:13;100446.22;;;18.76;55.02
16331;BME280;8275;48.206;16.340;2022-10-28T07:50:42;100453.16;;;18.78;55.13
16331;BME280;8275;48.206;16.340;2022-10-28T07:53:10;100441.78;;;18.80;54.86
16331;BME280;8275;48.206;16.340;2022-10-28T07:55:40;100446.19;;;18.81;54.87
16331;BME280;8275;48.206;16.340;2022-10-28T07:58:08;100447.03;;;18.81;54.93
16331;BME280;8275;48.206;16.340;2022-10-28T08:00:37;100448.16;;;18.85;54.95
16331;BME280;8275;48.206;16.340;2022-10-28T08:03:05;100439.78;;;18.90;54.66
16331;BME280;8275;48.206;16.340;2022-10-28T08:05:34;100439.53;;;18.92;54.70
16331;BME280;8275;48.206;16.340;2022-10-28T08:08:03;100441.47;;;18.91;54.63
16331;BME280;8275;48.206;16.340;2022-10-28T08:10:31;100438.13;;;18.89;54.60
16331;BME280;8275;48.206;16.340;2022-10-28T08:13:01;100438.97;;;18.90;54.69
16331;BME280;8275;48.206;16.340;2022-10-28T08:15:29;100426.44;;;18.92;54.67
16331;BME280;8275;48.206;16.340;2022-10-28T08:17:58;100429.22;;;18.92;54.61
16331;BME280;8275;48.206;16.340;2022-10-28T08:20:26;100415.63;;;18.91;54.53
16331;BME280;8275;48.206;16.340;2022-10-28T08:22:55;100410.91;;;18.91;54.59
16331;BME280;8275;48.206;16.340;2022-10-28T08:25:30;100418.94;;;18.93;54.63
16331;BME280;8275;48.206;16.340;2022-10-28T08:27:59;100418.69;;;18.95;54.61
16331;BME280;8275;48.206;16.340;2022-10-28T08:30:28;100418.94;;;18.93;54.47
16331;BME280;8275;48.206;16.340;2022-10-28T08:33:11;100411.16;;;18.95;54.54
16331;BME280;8275;48.206;16.340;2022-10-28T08:35:39;100416.44;;;18.97;54.51
16331;BME280;8275;48.206;16.340;2022-10-28T08:38:08;100420.03;;;19.02;54.33
16331;BME280;8275;48.206;16.340;2022-10-28T08:40:46;100421.13;;;19.06;54.43
16331;BME280;8275;48.206;16.340;2022-10-28T08:43:25;100412.50;;;19.08;54.21
16331;BME280;8275;48.206;16.340;2022-10-28T08:46:22;100415.84;;;19.10;54.05
16331;BME280;8275;48.206;16.340;2022-10-28T08:48:54;100418.59;;;19.10;54.12
16331;BME280;8275;48.206;16.340;2022-10-28T08:51:28;100422.22;;;19.10;54.13
16331;BME280;8275;48.206;16.340;2022-10-28T08:54:05;100418.31;;;19.11;54.07
16331;BME280;8275;48.206;16.340;2022-10-28T08:56:41;100431.94;;;19.13;54.05
16331;BME280;8275;48.206;16.340;2022-10-28T08:59:18;100442.19;;;19.17;54.03
16331;BME280;8275;48.206;16.340;2022-10-28T09:01:50;100450.78;;;19.21;53.80
16331;BME280;8275;48.206;16.340;2022-10-28T09:04:27;100444.38;;;19.20;53.60
16331;BME280;8275;48.206;16.340;2022-10-28T09:06:58;100448.00;;;19.16;53.42
16331;BME280;8275;48.206;16.340;2022-10-28T09:09:28;100454.41;;;19.11;53.42
16331;BME280;8275;48.206;16.340;2022-10-28T09:12:09;100441.94;;;19.09;53.42
16331;BME280;8275;48.206;16.340;2022-10-28T09:15:08;100441.94;;;19.09;53.69
16331;BME280;8275;48.206;16.340;2022-10-28T09:17:50;100444.44;;;19.15;53.67
16331;BME280;8275;48.206;16.340;2022-10-28T09:20:27;100443.81;;;19.23;53.57
16331;BME280;8275;48.206;16.340;2022-10-28T09:22:58;100422.97;;;19.31;53.51
16331;BME280;8275;48.206;16.340;2022-10-28T09:25:33;100429.34;;;19.36;53.62
16331;BME280;8275;48.206;16.340;2022-10-28T09:28:19;100421.84;;;19.37;53.81
16331;BME280;8275;48.206;16.340;2022-10-28T09:31:02;100427.38;;;19.42;53.68
16331;BME280;8275;48.206;16.340;2022-10-28T09:33:45;100431.78;;;19.48;53.50
16331;BME280;8275;48.206;16.340;2022-10-28T09:36:23;100421.75;;;19.52;53.38
16331;BME280;8275;48.206;16.340;2022-10-28T09:38:56;100426.72;;;19.55;53.44
16331;BME280;8275;48.206;16.340;2022-10-28T09:41:30;100417.53;;;19.59;53.73
16331;BME280;8275;48.206;16.340;2022-10-28T09:44:05;100416.41;;;19.66;53.29
16331;BME280;8275;48.206;16.340;2022-10-28T09:46:39;100424.41;;;19.72;53.11
16331;BME280;8275;48.206;16.340;2022-10-28T09:49:15;100430.81;;;19.73;53.18
16331;BME280;8275;48.206;16.340;2022-10-28T09:51:49;100433.59;;;19.73;52.51
16331;BME280;8275;48.206;16.340;2022-10-28T09:54:26;100432.75;;;19.72;52.54
16331;BME280;8275;48.206;16.340;2022-10-28T09:56:57;100430.53;;;19.69;52.74
16331;BME280;8275;48.206;16.340;2022-10-28T09:59:26;100444.19;;;19.66;52.94
16331;BME280;8275;48.206;16.340;2022-10-28T10:01:56;100448.34;;;19.68;53.11
16331;BME280;8275;48.206;16.340;2022-10-28T10:04:26;100443.56;;;19.74;52.78
16331;BME280;8275;48.206;16.340;2022-10-28T10:07:01;100448.25;;;19.78;52.84
16331;BME280;8275;48.206;16.340;2022-10-28T10:09:32;100449.94;;;19.79;52.52
16331;BME280;8275;48.206;16.340;2022-10-28T10:12:06;100442.13;;;19.81;52.77
16331;BME280;8275;48.206;16.340;2022-10-28T10:14:39;100447.13;;;19.84;52.72
16331;BME280;8275;48.206;16.340;2022-10-28T10:17:15;100446.84;;;19.86;52.20
16331;BME280;8275;48.206;16.340;2022-10-28T10:20:00;100432.09;;;19.85;52.40
16331;BME280;8275;48.206;16.340;2022-10-28T10:22:31;100423.75;;;19.85;52.27
16331;BME280;8275;48.206;16.340;2022-10-28T10:25:01;100416.25;;;19.86;52.49
16331;BME280;8275;48.206;16.340;2022-10-28T10:27:30;100424.88;;;19.84;52.44
16331;BME280;8275;48.206;16.340;2022-10-28T10:29:58;100423.22;;;19.83;52.32
16331;BME280;8275;48.206;16.340;2022-10-28T10:32:30;100432.69;;;19.82;52.24
16331;BME280;8275;48.206;16.340;2022-10-28T10:35:04;100438.25;;;19.82;
16331;BME280;8275;48.206;16.340;2022-10-28T10:37:44;100434.34;;;19.83;52.39
16331;BME280;8275;48.206;16.340;2022-10-28T10:40:21;100432.09;;;19.85;52.33
16331;BME280;8275;48.206;16.340;2022-10-28T10:42:51;100432.59;;;19.92;52.26
16331;BME280;8275;48.206;16.340;2022-10-28T10:45:40;100433.13;;;19.94;51.88
16331;BME280;8275;48.206;16.340;2022-10-28T10:48:15;100428.09;;;19.96;51.81
16331;BME280;8275;48.206;16.340;2022-10-28T10:50:46;100430.00;;;20.01;51.80
16331;BME280;8275;48.206;16.340;2022-10-28T10:53:23;100429.44;;;20.04;51.97
16331;BME280;8275;48.206;16.340;2022-10-28T10:55:58;100432.19;;;20.09;51.87
16331;BME280;8275;48.206;16.340;2022-10-28T10:58:31;100427.69;;;20.13;51.67
16331;BME280;8275;48.206;16.340;2022-10-28T11:01:03;100416.84;;;20.16;51.60
16331;BME280;8275;48.206;16.340;2022-10-28T11:03:38;100410.41;;;20.21;51.86
16331;BME280;8275;48.206;16.340;2022-10-28T11:06:10;100406.50;;;20.22;51.87
16331;BME280;8275;48.206;16.340;2022-10-28T11:08:55;100412.66;;;20.19;51.72
16331;BME280;8275;48.206;16.340;2022-10-28T11:11:33;100415.69;;;20.17;51.80
16331;BME280;8275;48.206;16.340;2022-10-28T11:14:06;100421.00;;;20.19;51.91
16331;BME280;8275;48.206;16.340;2022-10-28T11:16:49;100418.75;;;20.21;51.75
16331;BME280;8275;48.206;16.340;2022-10-28T11:19:23;100410.97;;;20.23;51.90
16331;BME280;8275;48.206;16.340;2022-10-28T11:22:08;100416.22;;;20.24;51.71
16331;BME280;8275;48.206;16.340;2022-10-28T11:25:05;100406.75;;;20.25;51.89
16331;BME280;8275;48.206;16.340;2022-10-28T11:27:45;100404.47;;;20.33;51.59
16331;BME280;8275;48.206;16.340;2022-10-28T11:30:32;100403.81;;;20.41;51.48
16331;BME280;8275;48.206;16.340;2022-10-28T11:33:11;100402.38;;;20.48;51.32
16331;BME280;8275;48.206;16.340;2022-10-28T11:36:08;100401.22;;;20.49;51.24
16331;BME280;8275;48.206;16.340;2022-10-28T11:39:03;100392.88;;;20.49;51.52
16331;BME280;8275;48.206;16.340;2022-10-28T11:41:46;100397.84;;;20.52;51.25
16331;BME280;8275;48.206;16.340;2022-10-28T11:44:37;100391.72;;;20.55;51.25
16331;BME280;8275;48.206;16.340;2022-10-28T11:47:24;100392.19;;;20.62;51.03
16331;BME280;8275;48.206;16.340;2022-10-28T11:50:23;100383.53;;;20.64;50.84
16331;BME280;8275;48.206;16.340;2022-10-28T11:53:23;100389.41;;;20.62;50.98
16331;BME280;8275;48.206;16.340;2022-10-28T11:55:58;100381.88;;;20.63;51.13
16331;BME280;8275;48.206;16.340;2022-10-28T11:58:37;100389.69;;;20.61;50.73
16331;BME280;8275;48.206;16.340;2022-10-28T12:01:20;100380.22;;;20.62;50.88
16331;BME280;8275;48.206;16.340;2022-10-28T12:04:09;100386.00;;;20.65;50.87
16331;BME280;8275;48.206;16.340;2022-10-28T12:10:00;100386.50;;;20.72;50.27
16331;BME280;8275;48.206;16.340;2022-10-28T12:12:36;100379.50;;;20.75;50.46
16331;BME280;8275;48.206;16.340;2022-10-28T12:15:16;100361.69;;;20.76;50.30
16331;BME280;8275;48.206;16.340;2022-10-28T12:17:51;100352.75;;;20.79;50.11
16331;BME280;8275;48.206;16.340;2022-10-28T12:20:26;100361.84;;;20.84;49.91
16331;BME280;8275;48.206;16.340;2022-10-28T12:23:00;100362.38;;;20.86;49.80
16331;BME280;8275;48.206;16.340;2022-10-28T12:25:35;100361.47;;;20.91;50.15
16331;BME280;8275;48.206;16.340;2022-10-28T12:28:15;100364.25;;;20.91;50.03
16331;BME280;8275;48.206;16.340;2022-10-28T12:30:46;100361.19;;;20.92;50.20
16331;BME280;8275;48.206;16.340;2022-10-28T12:33:18;100366.47;;;20.94;49.78
16331;BME280;8275;48.206;16.340;2022-10-28T12:35:53;100346.13;;;20.93;49.78
16331;BME280;8275;48.206;16.340;2022-10-28T12:38:27;100350.34;;;20.91;49.57
16331;BME280;8275;48.206;16.340;2022-10-28T12:41:05;100350.94;;;20.88;50.02
16331;BME280;8275;48.206;16.340;2022-10-28T12:43:39;100348.44;;;20.86;49.93
16331;BME280;8275;48.206;16.340;2022-10-28T12:46:21;100352.13;;;20.82;49.95
16331;BME280;8275;48.206;16.340;2022-10-28T12:48:56;100343.25;;;20.80;50.01
16331;BME280;8275;48.206;16.340;2022-10-28T12:51:30;100348.28;;;20.78;50.03
16331;BME280;8275;48.206;16.340;2022-10-28T12:54:08;100348.13;;;20.69;49.75
16331;BME280;8275;48.206;16.340;2022-10-28T12:56:49;100342.34;;;20.61;50.24
16331;BME280;8275;48.206;16.340;2022-10-28T12:59:26;100352.13;;;20.58;49.92
16331;BME280;8275;48.206;16.340;2022-10-28T13:01:58;100340.97;;;20.58;50.05
16331;BME280;8275;48.206;16.340;2022-10-28T13:04:27;100341.28;;;20.57;50.00
16331;BME280;8275;48.206;16.340;2022-10-28T13:07:29;100337.75;;;20.51;49.83
16331;BME280;8275;48.206;16.340;2022-10-28T13:10:15;100332.19;;;20.51;50.15
16331;BME280;8275;48.206;16.340;2022-10-28T13:13:13;100333.00;;;20.52;50.46
16331;BME280;8275;48.206;16.340;2022-10-28T13:16:09;100339.66;;;20.56;50.29
16331;BME280;8275;48.206;16.340;2022-10-28T13:22:29;100332.34;;;20.60;50.35
16331;BME280;8275;48.206;16.340;2022-10-28T13:25:17;100339.28;;;20.62;50.04
16331;BME280;8275;48.206;16.340;2022-10-28T13:27:55;100329.03;;;20.58;50.00
16331;BME280;8275;48.206;16.340;2022-10-28T13:30:25;100334.97;;;20.51;50.12
16331;BME280;8275;48.206;16.340;2022-10-28T13:33:04;100340.06;;;20.44;50.16
16331;BME280;8275;48.206;16.340;2022-10-28T13:35:33;100333.66;;;20.44;50.32
16331;BME280;8275;48.206;16.340;2022-10-28T13:38:09;100339.28;;;20.39;50.35